sensor_id;sensor_type;location;lat;lon;timestamp;P1;durP1;ratioP1;P2;durP2;ratioP2
57339;SDS011;43174;50.930;18.170;2023-05-08T00:07:41;7.90;;;7.60;;
57339;SDS011;43174;50.930;18.170;2023-05-08T00:17:24;18.20;;;13.30;;
57339;SDS011;43174;50.930;18.170;2023-05-08T00:27:05;13.40;;;12.80;;
57339;SDS011;43174;50.930;18.170;2023-05-08T00:36:48;14.10;;;11.30;;
57339;SDS011;43174;50.930;18.170;2023-05-08T00:46:31;13.10;;;12.40;;
57339;SDS011;43174;50.930;18.170;2023-05-08T00:56:14;11.10;;;10.00;;
57339;SDS011;43174;50.930;18.170;2023-05-08T01:05:56;11.10;;;10.70;;
57339;SDS011;43174;50.930;18.170;2023-05-08T01:15:40;11.70;;;11.10;;
57339;SDS011;43174;50.930;18.170;2023-05-08T01:45:02;23.30;;;13.50;;
57339;SDS011;43174;50.930;18.170;2023-05-08T01:54:49;9.90;;;9.50;;
57339;SDS011;43174;50.930;18.170;2023-05-08T02:04:33;9.50;;;9.00;;
57339;SDS011;43174;50.930;18.170;2023-05-08T02:14:15;12.40;;;11.20;;
57339;SDS011;43174;50.930;18.170;2023-05-08T02:23:59;16.40;;;14.80;;
57339;SDS011;43174;50.930;18.170;2023-05-08T02:33:42;6.50;;;6.30;;
57339;SDS011;43174;50.930;18.170;2023-05-08T02:43:25;5.20;;;4.80;;
57339;SDS011;43174;50.930;18.170;2023-05-08T02:53:08;14.70;;;13.60;;
57339;SDS011;43174;50.930;18.170;2023-05-08T03:02:55;11.90;;;11.10;;
57339;SDS011;43174;50.930;18.170;2023-05-08T03:12:40;12.40;;;11.60;;
57339;SDS011;43174;50.930;18.170;2023-05-08T03:22:25;10.50;;;10.10;;
57339;SDS011;43174;50.930;18.170;2023-05-08T03:32:08;10.80;;;10.10;;
57339;SDS011;43174;50.930;18.170;2023-05-08T03:41:53;10.80;;;9.60;;
57339;SDS011;43174;50.930;18.170;2023-05-08T03:51:39;13.70;;;12.60;;
57339;SDS011;43174;50.930;18.170;2023-05-08T04:01:22;12.40;;;9.30;;
57339;SDS011;43174;50.930;18.170;2023-05-08T04:28:31;9.70;;;9.20;;
57339;SDS011;43174;50.930;18.170;2023-05-08T04:38:14;11.30;;;10.80;;
57339;SDS011;43174;50.930;18.170;2023-05-08T04:47:56;8.40;;;7.90;;
57339;SDS011;43174;50.930;18.170;2023-05-08T04:57:39;10.10;;;9.70;;
57339;SDS011;43174;50.930;18.170;2023-05-08T05:07:25;12.40;;;11.30;;
57339;SDS011;43174;50.930;18.170;2023-05-08T05:17:08;9.90;;;9.30;;
57339;SDS011;43174;50.930;18.170;2023-05-08T05:26:51;15.60;;;9.10;;
57339;SDS011;43174;50.930;18.170;2023-05-08T05:36:34;10.40;;;9.90;;
57339;SDS011;43174;50.930;18.170;2023-05-08T05:46:16;9.70;;;8.90;;
57339;SDS011;43174;50.930;18.170;2023-05-08T05:55:58;7.90;;;7.50;;
57339;SDS011;43174;50.930;18.170;2023-05-08T06:05:42;4.90;;;4.60;;
57339;SDS011;43174;50.930;18.170;2023-05-08T06:15:24;8.70;;;8.30;;
57339;SDS011;43174;50.930;18.170;2023-05-08T06:25:08;8.00;;;7.60;;
57339;SDS011;43174;50.930;18.170;2023-05-08T06:34:50;9.80;;;9.20;;
57339;SDS011;43174;50.930;18.170;2023-05-08T06:44:33;6.40;;;6.10;;
57339;SDS011;43174;50.930;18.170;2023-05-08T06:54:14;5.80;;;5.50;;
57339;SDS011;43174;50.930;18.170;2023-05-08T07:03:57;5.10;;;4.90;;
57339;SDS011;43174;50.930;18.170;2023-05-08T07:13:39;6.30;;;5.90;;
57339;SDS011;43174;50.930;18.170;2023-05-08T07:23:23;5.10;;;4.70;;
57339;SDS011;43174;50.930;18.170;2023-05-08T07:33:05;26.10;;;8.70;;
57339;SDS011;43174;50.930;18.170;2023-05-08T07:42:48;15.80;;;6.80;;
57339;SDS011;43174;50.930;18.170;2023-05-08T07:45:14;7.50;;;7.00;;
57339;SDS011;43174;50.930;18.170;2023-05-08T07:54:56;5.60;;;5.40;;
57339;SDS011;43174;50.930;18.170;2023-05-08T08:04:38;6.90;;;6.50;;
57339;SDS011;43174;50.930;18.170;2023-05-08T08:14:21;5.10;;;4.80;;
57339;SDS011;43174;50.930;18.170;2023-05-08T08:24:03;5.60;;;5.20;;
57339;SDS011;43174;50.930;18.170;2023-05-08T08:33:46;4.10;;;3.90;;
57339;SDS011;43174;50.930;18.170;2023-05-08T08:43:29;3.20;;;3.00;;
57339;SDS011;43174;50.930;18.170;2023-05-08T09:02:56;4.30;;;4.00;;
57339;SDS011;43174;50.930;18.170;2023-05-08T09:12:40;4.00;;;3.20;;
57339;SDS011;43174;50.930;18.170;2023-05-08T09:22:22;6.40;;;2.60;;
57339;SDS011;43174;50.930;18.170;2023-05-08T09:32:05;2.70;;;2.50;;
57339;SDS011;43174;50.930;18.170;2023-05-08T09:41:58;4.10;;;3.90;;
57339;SDS011;43174;50.930;18.170;2023-05-08T09:51:40;4.30;;;2.60;;
57339;SDS011;43174;50.930;18.170;2023-05-08T10:01:33;4.50;;;3.70;;
57339;SDS011;43174;50.930;18.170;2023-05-08T10:11:15;1.60;;;1.60;;
57339;SDS011;43174;50.930;18.170;2023-05-08T10:20:58;3.20;;;3.00;;
57339;SDS011;43174;50.930;18.170;2023-05-08T10:30:46;3.00;;;2.50;;
57339;SDS011;43174;50.930;18.170;2023-05-08T10:40:29;2.10;;;2.00;;
57339;SDS011;43174;50.930;18.170;2023-05-08T10:50:21;2.80;;;2.10;;
57339;SDS011;43174;50.930;18.170;2023-05-08T11:00:10;5.70;;;5.20;;
57339;SDS011;43174;50.930;18.170;2023-05-08T11:09:53;2.80;;;2.60;;
57339;SDS011;43174;50.930;18.170;2023-05-08T11:19:38;2.50;;;2.30;;
57339;SDS011;43174;50.930;18.170;2023-05-08T11:29:36;2.00;;;1.90;;
57339;SDS011;43174;50.930;18.170;2023-05-08T11:39:19;1.70;;;1.70;;
57339;SDS011;43174;50.930;18.170;2023-05-08T11:49:05;1.80;;;1.70;;
57339;SDS011;43174;50.930;18.170;2023-05-08T12:06:07;2.50;;;2.00;;
57339;SDS011;43174;50.930;18.170;2023-05-08T12:15:51;2.40;;;2.10;;
57339;SDS011;43174;50.930;18.170;2023-05-08T12:25:37;3.20;;;3.00;;
57339;SDS011;43174;50.930;18.170;2023-05-08T12:35:20;9.70;;;2.90;;
57339;SDS011;43174;50.930;18.170;2023-05-08T12:37:46;5.00;;;4.70;;
57339;SDS011;43174;50.930;18.170;2023-05-08T12:47:27;6.20;;;5.80;;
57339;SDS011;43174;50.930;18.170;2023-05-08T12:57:16;23.60;;;2.00;;
57339;SDS011;43174;50.930;18.170;2023-05-08T13:06:59;4.20;;;3.50;;
57339;SDS011;43174;50.930;18.170;2023-05-08T13:16:43;2.70;;;2.50;;
57339;SDS011;43174;50.930;18.170;2023-05-08T13:26:25;2.90;;;1.70;;
57339;SDS011;43174;50.930;18.170;2023-05-08T13:36:08;1.90;;;1.80;;
57339;SDS011;43174;50.930;18.170;2023-05-08T13:38:34;3.00;;;1.50;;
57339;SDS011;43174;50.930;18.170;2023-05-08T13:48:18;1.90;;;1.80;;
57339;SDS011;43174;50.930;18.170;2023-05-08T13:58:02;2.50;;;2.40;;
57339;SDS011;43174;50.930;18.170;2023-05-08T14:07:44;0.80;;;0.60;;
57339;SDS011;43174;50.930;18.170;2023-05-08T14:17:26;3.10;;;1.20;;
57339;SDS011;43174;50.930;18.170;2023-05-08T14:27:08;3.50;;;3.30;;
57339;SDS011;43174;50.930;18.170;2023-05-08T14:36:51;3.00;;;1.90;;
57339;SDS011;43174;50.930;18.170;2023-05-08T14:46:33;1.20;;;1.10;;
57339;SDS011;43174;50.930;18.170;2023-05-08T14:56:15;1.40;;;1.30;;
57339;SDS011;43174;50.930;18.170;2023-05-08T15:05:58;2.80;;;1.10;;
57339;SDS011;43174;50.930;18.170;2023-05-08T15:08:24;3.90;;;2.90;;
57339;SDS011;43174;50.930;18.170;2023-05-08T15:18:07;7.10;;;2.20;;
57339;SDS011;43174;50.930;18.170;2023-05-08T15:27:50;3.10;;;2.90;;
57339;SDS011;43174;50.930;18.170;2023-05-08T15:37:33;4.10;;;3.00;;
57339;SDS011;43174;50.930;18.170;2023-05-08T15:47:17;18.20;;;4.00;;
57339;SDS011;43174;50.930;18.170;2023-05-08T15:57:00;14.10;;;2.80;;
57339;SDS011;43174;50.930;18.170;2023-05-08T16:06:42;7.60;;;6.90;;
57339;SDS011;43174;50.930;18.170;2023-05-08T16:16:24;1.50;;;1.40;;
57339;SDS011;43174;50.930;18.170;2023-05-08T16:26:07;3.00;;;2.30;;
57339;SDS011;43174;50.930;18.170;2023-05-08T16:35:49;2.00;;;0.90;;
57339;SDS011;43174;50.930;18.170;2023-05-08T16:45:34;5.80;;;5.50;;
57339;SDS011;43174;50.930;18.170;2023-05-08T16:55:16;5.90;;;5.50;;
57339;SDS011;43174;50.930;18.170;2023-05-08T17:04:59;5.10;;;4.80;;
57339;SDS011;43174;50.930;18.170;2023-05-08T17:14:43;10.40;;;5.90;;
57339;SDS011;43174;50.930;18.170;2023-05-08T17:24:25;9.70;;;4.20;;
57339;SDS011;43174;50.930;18.170;2023-05-08T17:34:10;2.60;;;2.50;;
57339;SDS011;43174;50.930;18.170;2023-05-08T17:43:54;4.30;;;4.00;;
57339;SDS011;43174;50.930;18.170;2023-05-08T17:53:38;13.60;;;5.60;;
57339;SDS011;43174;50.930;18.170;2023-05-08T18:03:22;5.30;;;4.60;;
57339;SDS011;43174;50.930;18.170;2023-05-08T18:13:08;8.60;;;7.10;;
57339;SDS011;43174;50.930;18.170;2023-05-08T18:20:28;6.50;;;6.00;;
57339;SDS011;43174;50.930;18.170;2023-05-08T18:30:12;14.40;;;13.10;;
57339;SDS011;43174;50.930;18.170;2023-05-08T18:40:02;15.00;;;9.40;;
57339;SDS011;43174;50.930;18.170;2023-05-08T18:49:49;23.00;;;18.10;;
57339;SDS011;43174;50.930;18.170;2023-05-08T18:59:39;7.90;;;7.20;;
57339;SDS011;43174;50.930;18.170;2023-05-08T19:09:27;13.40;;;11.90;;
57339;SDS011;43174;50.930;18.170;2023-05-08T19:19:10;31.40;;;17.80;;
57339;SDS011;43174;50.930;18.170;2023-05-08T19:28:52;36.20;;;20.50;;
57339;SDS011;43174;50.930;18.170;2023-05-08T19:38:37;13.10;;;12.00;;
57339;SDS011;43174;50.930;18.170;2023-05-08T19:55:39;22.90;;;13.70;;
57339;SDS011;43174;50.930;18.170;2023-05-08T20:05:22;16.20;;;8.80;;
57339;SDS011;43174;50.930;18.170;2023-05-08T20:15:04;35.70;;;22.90;;
57339;SDS011;43174;50.930;18.170;2023-05-08T20:24:48;40.40;;;15.40;;
57339;SDS011;43174;50.930;18.170;2023-05-08T20:34:32;33.20;;;21.50;;
57339;SDS011;43174;50.930;18.170;2023-05-08T20:44:17;19.60;;;17.60;;
57339;SDS011;43174;50.930;18.170;2023-05-08T20:54:04;63.00;;;29.10;;
57339;SDS011;43174;50.930;18.170;2023-05-08T21:03:49;29.00;;;12.20;;
57339;SDS011;43174;50.930;18.170;2023-05-08T21:13:32;26.90;;;16.70;;
57339;SDS011;43174;50.930;18.170;2023-05-08T21:23:17;64.80;;;27.40;;
57339;SDS011;43174;50.930;18.170;2023-05-08T21:33:00;39.40;;;18.60;;
57339;SDS011;43174;50.930;18.170;2023-05-08T21:42:44;20.10;;;16.40;;
57339;SDS011;43174;50.930;18.170;2023-05-08T21:52:26;19.60;;;14.30;;
57339;SDS011;43174;50.930;18.170;2023-05-08T22:02:09;26.50;;;11.40;;
57339;SDS011;43174;50.930;18.170;2023-05-08T22:11:51;20.60;;;14.80;;
57339;SDS011;43174;50.930;18.170;2023-05-08T22:21:34;29.20;;;10.60;;
57339;SDS011;43174;50.930;18.170;2023-05-08T22:31:16;13.60;;;11.60;;
57339;SDS011;43174;50.930;18.170;2023-05-08T22:40:57;21.20;;;15.60;;
57339;SDS011;43174;50.930;18.170;2023-05-08T22:50:41;42.90;;;21.20;;
57339;SDS011;43174;50.930;18.170;2023-05-08T23:00:24;18.50;;;13.40;;
57339;SDS011;43174;50.930;18.170;2023-05-08T23:10:06;30.80;;;15.40;;
57339;SDS011;43174;50.930;18.170;2023-05-08T23:19:50;10.70;;;9.60;;
57339;SDS011;43174;50.930;18.170;2023-05-08T23:29:32;20.30;;;13.90;;
57339;SDS011;43174;50.930;18.170;2023-05-08T23:39:14;120.20;;;23.70;;
57339;SDS011;43174;50.930;18.170;2023-05-08T23:48:56;64.20;;;24.60;;
57339;SDS011;43174;50.930;18.170;2023-05-08T23:58:38;27.20;;;18.00;;
